RYR235W EGKK-EGPH
Flight info
| Callsign | RYR235W |
|---|---|
| Flight time | 1h 4m |
| Altitude | 34000 |
| Route | LAM L10 BPK UN601 RIBEL DCT INPIP |
| Aircraft | B738/M-SABDFGRVYL/LB2 |
Departure
| Time | 2026-04-25 12:23 |
|---|---|
| Airport | London Gatwick Airport (EGKK) |
Arrival
| Time | 2026-04-25 13:27 |
|---|---|
| Airport | Edinburgh Airport (EGPH) |
| Time | Latitude | Longitude | Altitude | Speed | Heading |
|---|---|---|---|---|---|
| 2026-04-25 11:55 | 51.15858 | -0.17948 | 194 ft | 0 kts | 77° |
| 2026-04-25 12:11 | 51.15858 | -0.17949 | 194 ft | 0 kts | 77° |
| 2026-04-25 12:11 | 51.15856 | -0.17962 | 193 ft | 2 kts | 79° |
| 2026-04-25 12:11 | 51.15853 | -0.17985 | 193 ft | 2 kts | 76° |
| 2026-04-25 12:11 | 51.15849 | -0.18008 | 193 ft | 2 kts | 77° |
| 2026-04-25 12:12 | 51.15846 | -0.18031 | 192 ft | 2 kts | 77° |
| 2026-04-25 12:12 | 51.15844 | -0.18056 | 192 ft | 2 kts | 105° |
| 2026-04-25 12:12 | 51.15851 | -0.18077 | 191 ft | 2 kts | 135° |
| 2026-04-25 12:12 | 51.15862 | -0.18089 | 191 ft | 0 kts | 164° |
| 2026-04-25 12:13 | 51.15868 | -0.18091 | 191 ft | 1 kts | 170° |
| 2026-04-25 12:13 | 51.15871 | -0.18091 | 191 ft | 0 kts | 168° |
| 2026-04-25 12:16 | 51.15870 | -0.18091 | 191 ft | 0 kts | 168° |
| 2026-04-25 12:16 | 51.15840 | -0.18081 | 191 ft | 7 kts | 168° |
| 2026-04-25 12:16 | 51.15764 | -0.18051 | 192 ft | 14 kts | 166° |
| 2026-04-25 12:17 | 51.15675 | -0.18141 | 190 ft | 21 kts | 255° |
| 2026-04-25 12:17 | 51.15636 | -0.18412 | 190 ft | 28 kts | 258° |
| 2026-04-25 12:17 | 51.15591 | -0.18741 | 193 ft | 32 kts | 255° |
| 2026-04-25 12:17 | 51.15392 | -0.18776 | 193 ft | 34 kts | 168° |
| 2026-04-25 12:18 | 51.15155 | -0.18706 | 196 ft | 27 kts | 200° |
| 2026-04-25 12:18 | 51.15087 | -0.19003 | 196 ft | 31 kts | 257° |
| 2026-04-25 12:18 | 51.15037 | -0.19377 | 193 ft | 37 kts | 257° |
| 2026-04-25 12:18 | 51.14979 | -0.19809 | 195 ft | 41 kts | 258° |
| 2026-04-25 12:19 | 51.14885 | -0.20500 | 197 ft | 35 kts | 258° |
| 2026-04-25 12:19 | 51.14821 | -0.20968 | 199 ft | 29 kts | 257° |
| 2026-04-25 12:19 | 51.14773 | -0.21263 | 199 ft | 24 kts | 258° |
| 2026-04-25 12:20 | 51.14757 | -0.21357 | 202 ft | 3 kts | 246° |
| 2026-04-25 12:20 | 51.14754 | -0.21365 | 202 ft | 0 kts | 233° |
| 2026-04-25 12:20 | 51.14753 | -0.21367 | 202 ft | 1 kts | 233° |
| 2026-04-25 12:20 | 51.14727 | -0.21391 | 202 ft | 7 kts | 193° |
| 2026-04-25 12:21 | 51.14656 | -0.21350 | 202 ft | 14 kts | 152° |
| 2026-04-25 12:21 | 51.14544 | -0.21264 | 201 ft | 21 kts | 130° |
| 2026-04-25 12:21 | 51.14526 | -0.21128 | 199 ft | 0 kts | 78° |
| 2026-04-25 12:22 | 51.14557 | -0.20903 | 196 ft | 66 kts | 76° |
| 2026-04-25 12:22 | 51.14730 | -0.19673 | 193 ft | 160 kts | 79° |
| 2026-04-25 12:23 | 51.15004 | -0.17696 | 924 ft | 187 kts | 77° |
| 2026-04-25 12:23 | 51.15286 | -0.15721 | 1997 ft | 191 kts | 77° |
| 2026-04-25 12:23 | 51.15570 | -0.13608 | 2711 ft | 204 kts | 78° |
| 2026-04-25 12:23 | 51.15876 | -0.11316 | 3401 ft | 219 kts | 77° |
| 2026-04-25 12:24 | 51.16209 | -0.08869 | 4054 ft | 235 kts | 77° |
| 2026-04-25 12:24 | 51.16725 | -0.06392 | 4715 ft | 244 kts | 63° |
| 2026-04-25 12:24 | 51.17687 | -0.04124 | 5033 ft | 245 kts | 51° |
| 2026-04-25 12:24 | 51.18767 | -0.02069 | 5421 ft | 241 kts | 49° |
| 2026-04-25 12:25 | 51.19837 | -0.00005 | 5866 ft | 241 kts | 50° |
| 2026-04-25 12:25 | 51.20921 | 0.02178 | 6309 ft | 268 kts | 51° |
| 2026-04-25 12:25 | 51.22126 | 0.04661 | 6763 ft | 296 kts | 52° |
| 2026-04-25 12:25 | 51.23427 | 0.07364 | 7212 ft | 321 kts | 51° |
| 2026-04-25 12:26 | 51.24735 | 0.10324 | 7660 ft | 331 kts | 55° |
| 2026-04-25 12:26 | 51.26251 | 0.13068 | 8103 ft | 333 kts | 37° |
| 2026-04-25 12:26 | 51.28267 | 0.14794 | 8548 ft | 334 kts | 19° |
| 2026-04-25 12:26 | 51.30530 | 0.15811 | 9003 ft | 336 kts | 12° |
| 2026-04-25 12:27 | 51.32801 | 0.16631 | 9449 ft | 338 kts | 11° |
| 2026-04-25 12:27 | 51.35112 | 0.17289 | 9897 ft | 339 kts | 2° |
| 2026-04-25 12:27 | 51.37438 | 0.16952 | 10348 ft | 340 kts | 347° |
| 2026-04-25 12:27 | 51.39749 | 0.15950 | 10801 ft | 343 kts | 342° |
| 2026-04-25 12:28 | 51.42015 | 0.14800 | 11245 ft | 345 kts | 341° |
| 2026-04-25 12:28 | 51.44295 | 0.13610 | 11695 ft | 346 kts | 341° |
| 2026-04-25 12:28 | 51.46624 | 0.12392 | 12149 ft | 350 kts | 341° |
| 2026-04-25 12:28 | 51.48886 | 0.11104 | 12590 ft | 351 kts | 335° |
| 2026-04-25 12:29 | 51.51062 | 0.09295 | 13036 ft | 354 kts | 328° |
| 2026-04-25 12:29 | 51.53162 | 0.07210 | 13483 ft | 356 kts | 327° |
| 2026-04-25 12:29 | 51.55260 | 0.05090 | 13930 ft | 358 kts | 327° |
| 2026-04-25 12:29 | 51.57409 | 0.03004 | 14382 ft | 360 kts | 328° |
| 2026-04-25 12:30 | 51.59574 | 0.00999 | 14832 ft | 363 kts | 329° |
| 2026-04-25 12:30 | 51.61810 | -0.01009 | 15284 ft | 372 kts | 330° |
| 2026-04-25 12:30 | 51.64101 | -0.03040 | 15727 ft | 387 kts | 330° |
| 2026-04-25 12:30 | 51.66507 | -0.05164 | 16191 ft | 402 kts | 330° |
| 2026-04-25 12:31 | 51.68998 | -0.07363 | 16650 ft | 415 kts | 330° |
| 2026-04-25 12:31 | 51.71574 | -0.09641 | 17100 ft | 422 kts | 330° |
| 2026-04-25 12:31 | 51.74147 | -0.11922 | 17559 ft | 426 kts | 330° |
| 2026-04-25 12:31 | 51.76738 | -0.14223 | 18045 ft | 430 kts | 330° |
| 2026-04-25 12:32 | 51.79331 | -0.16530 | 18990 ft | 429 kts | 330° |
| 2026-04-25 12:32 | 51.81935 | -0.18852 | 19703 ft | 434 kts | 330° |
| 2026-04-25 12:32 | 51.84591 | -0.21223 | 20441 ft | 438 kts | 330° |
| 2026-04-25 12:32 | 51.87278 | -0.23626 | 21097 ft | 444 kts | 330° |
| 2026-04-25 12:33 | 51.89978 | -0.26044 | 21749 ft | 449 kts | 329° |
| 2026-04-25 12:33 | 51.92716 | -0.28501 | 22388 ft | 453 kts | 329° |
| 2026-04-25 12:33 | 51.95470 | -0.30975 | 22997 ft | 458 kts | 329° |
| 2026-04-25 12:33 | 51.98257 | -0.33482 | 23609 ft | 463 kts | 329° |
| 2026-04-25 12:34 | 52.01090 | -0.36035 | 24246 ft | 467 kts | 329° |
| 2026-04-25 12:34 | 52.03920 | -0.38587 | 24880 ft | 470 kts | 329° |
| 2026-04-25 12:34 | 52.06773 | -0.41165 | 25467 ft | 475 kts | 329° |
| 2026-04-25 12:34 | 52.08714 | -0.42922 | 25880 ft | 477 kts | 329° |
| 2026-04-25 12:35 | 52.12535 | -0.46480 | 26688 ft | 480 kts | 328° |
| 2026-04-25 12:35 | 52.15409 | -0.49244 | 27597 ft | 476 kts | 328° |
| 2026-04-25 12:35 | 52.18196 | -0.51962 | 28544 ft | 470 kts | 328° |
| 2026-04-25 12:35 | 52.20992 | -0.54706 | 29311 ft | 467 kts | 328° |
| 2026-04-25 12:36 | 52.23755 | -0.57423 | 30026 ft | 466 kts | 328° |
| 2026-04-25 12:36 | 52.26500 | -0.60122 | 30706 ft | 464 kts | 328° |
| 2026-04-25 12:36 | 52.29267 | -0.62842 | 31320 ft | 463 kts | 328° |
| 2026-04-25 12:36 | 52.31948 | -0.65475 | 31935 ft | 461 kts | 327° |
| 2026-04-25 12:37 | 52.34742 | -0.68219 | 32548 ft | 460 kts | 327° |
| 2026-04-25 12:37 | 52.37463 | -0.70892 | 33076 ft | 460 kts | 327° |
| 2026-04-25 12:37 | 52.40189 | -0.73571 | 33613 ft | 459 kts | 327° |
| 2026-04-25 12:37 | 52.42892 | -0.76229 | 34225 ft | 456 kts | 327° |
| 2026-04-25 12:38 | 52.45629 | -0.78922 | 34831 ft | 453 kts | 327° |
| 2026-04-25 12:38 | 52.48310 | -0.81564 | 35117 ft | 454 kts | 327° |
| 2026-04-25 12:38 | 52.51056 | -0.84277 | 35167 ft | 456 kts | 327° |
| 2026-04-25 12:39 | 52.56469 | -0.89632 | 35175 ft | 452 kts | 327° |
| 2026-04-25 12:39 | 52.61855 | -0.94976 | 35176 ft | 453 kts | 327° |
| 2026-04-25 12:40 | 52.67229 | -1.00324 | 35179 ft | 453 kts | 327° |
| 2026-04-25 12:40 | 52.72614 | -1.05697 | 35181 ft | 453 kts | 327° |
| 2026-04-25 12:41 | 52.78019 | -1.11105 | 35183 ft | 453 kts | 327° |
| 2026-04-25 12:41 | 52.83375 | -1.16480 | 35186 ft | 453 kts | 327° |
| 2026-04-25 12:42 | 52.88779 | -1.21920 | 35186 ft | 454 kts | 327° |
| 2026-04-25 12:42 | 52.94130 | -1.27322 | 35185 ft | 454 kts | 327° |
| 2026-04-25 12:43 | 52.99501 | -1.32761 | 35184 ft | 455 kts | 327° |
| 2026-04-25 12:43 | 53.07603 | -1.40995 | 35185 ft | 456 kts | 327° |
| 2026-04-25 12:44 | 53.12986 | -1.46486 | 35181 ft | 457 kts | 327° |
| 2026-04-25 12:45 | 53.21106 | -1.54801 | 35180 ft | 456 kts | 327° |
| 2026-04-25 12:45 | 53.29186 | -1.63112 | 35180 ft | 456 kts | 327° |
| 2026-04-25 12:46 | 53.34577 | -1.68677 | 35177 ft | 456 kts | 327° |
| 2026-04-25 12:46 | 53.39958 | -1.74249 | 35176 ft | 457 kts | 327° |
| 2026-04-25 12:47 | 53.45345 | -1.79843 | 35174 ft | 458 kts | 327° |
| 2026-04-25 12:47 | 53.50763 | -1.85486 | 35171 ft | 459 kts | 327° |
| 2026-04-25 12:48 | 53.56177 | -1.91138 | 35177 ft | 459 kts | 327° |
| 2026-04-25 12:48 | 53.61618 | -1.96833 | 35183 ft | 458 kts | 327° |
| 2026-04-25 12:49 | 53.67013 | -2.02507 | 35185 ft | 459 kts | 327° |
| 2026-04-25 12:49 | 53.72420 | -2.08171 | 35188 ft | 459 kts | 328° |
| 2026-04-25 12:50 | 53.78106 | -2.13024 | 35185 ft | 460 kts | 335° |
| 2026-04-25 12:50 | 53.84007 | -2.17143 | 35183 ft | 461 kts | 337° |
| 2026-04-25 12:51 | 53.89971 | -2.21121 | 35184 ft | 461 kts | 338° |
| 2026-04-25 12:51 | 53.95898 | -2.25096 | 35184 ft | 461 kts | 337° |
| 2026-04-25 12:52 | 54.01846 | -2.29134 | 35183 ft | 462 kts | 337° |
| 2026-04-25 12:52 | 54.07796 | -2.33216 | 35184 ft | 462 kts | 337° |
| 2026-04-25 12:53 | 54.13705 | -2.37297 | 35182 ft | 461 kts | 337° |
| 2026-04-25 12:53 | 54.19601 | -2.41390 | 35182 ft | 461 kts | 337° |
| 2026-04-25 12:54 | 54.25545 | -2.45531 | 35181 ft | 461 kts | 337° |
| 2026-04-25 12:54 | 54.31469 | -2.49670 | 35183 ft | 461 kts | 337° |
| 2026-04-25 12:55 | 54.36404 | -2.53127 | 35180 ft | 461 kts | 337° |
| 2026-04-25 12:55 | 54.43287 | -2.57965 | 35177 ft | 462 kts | 337° |
| 2026-04-25 12:56 | 54.49159 | -2.62106 | 35177 ft | 446 kts | 337° |
| 2026-04-25 12:56 | 54.51997 | -2.64110 | 35174 ft | 429 kts | 337° |
| 2026-04-25 12:56 | 54.54675 | -2.66003 | 35136 ft | 415 kts | 336° |
| 2026-04-25 12:57 | 54.57320 | -2.67858 | 34795 ft | 409 kts | 338° |
| 2026-04-25 12:57 | 54.60097 | -2.68855 | 34283 ft | 409 kts | 358° |
| 2026-04-25 12:57 | 54.62862 | -2.67997 | 33759 ft | 408 kts | 21° |
| 2026-04-25 12:57 | 54.65262 | -2.65469 | 33245 ft | 409 kts | 38° |
| 2026-04-25 12:58 | 54.67143 | -2.61854 | 32716 ft | 412 kts | 59° |
| 2026-04-25 12:58 | 54.68132 | -2.57240 | 32191 ft | 414 kts | 81° |
| 2026-04-25 12:58 | 54.68028 | -2.52332 | 31666 ft | 413 kts | 104° |
| 2026-04-25 12:58 | 54.66818 | -2.47844 | 31135 ft | 411 kts | 127° |
| 2026-04-25 12:59 | 54.64763 | -2.44588 | 30622 ft | 410 kts | 148° |
| 2026-04-25 12:59 | 54.62190 | -2.42418 | 30088 ft | 409 kts | 159° |
| 2026-04-25 12:59 | 54.59491 | -2.40909 | 29550 ft | 409 kts | 169° |
| 2026-04-25 12:59 | 54.56689 | -2.40470 | 29022 ft | 409 kts | 181° |
| 2026-04-25 13:00 | 54.53864 | -2.40957 | 28490 ft | 410 kts | 191° |
| 2026-04-25 13:00 | 54.52022 | -2.41782 | 28133 ft | 409 kts | 198° |
| 2026-04-25 13:00 | 54.48626 | -2.44526 | 27429 ft | 410 kts | 212° |
| 2026-04-25 13:00 | 54.46357 | -2.47514 | 26896 ft | 410 kts | 223° |
| 2026-04-25 13:01 | 54.44463 | -2.51129 | 26369 ft | 412 kts | 233° |
| 2026-04-25 13:01 | 54.42980 | -2.55276 | 25846 ft | 413 kts | 243° |
| 2026-04-25 13:01 | 54.41946 | -2.59865 | 25316 ft | 414 kts | 253° |
| 2026-04-25 13:01 | 54.41412 | -2.64749 | 24785 ft | 414 kts | 264° |
| 2026-04-25 13:02 | 54.41402 | -2.69611 | 24264 ft | 411 kts | 274° |
| 2026-04-25 13:02 | 54.41903 | -2.74386 | 23746 ft | 408 kts | 284° |
| 2026-04-25 13:02 | 54.42904 | -2.78915 | 23232 ft | 406 kts | 295° |
| 2026-04-25 13:02 | 54.44360 | -2.83011 | 22735 ft | 404 kts | 306° |
| 2026-04-25 13:03 | 54.46218 | -2.86552 | 22234 ft | 403 kts | 316° |
| 2026-04-25 13:03 | 54.48457 | -2.89478 | 21726 ft | 401 kts | 327° |
| 2026-04-25 13:03 | 54.50914 | -2.91586 | 21228 ft | 400 kts | 338° |
| 2026-04-25 13:03 | 54.53579 | -2.92879 | 20724 ft | 398 kts | 348° |
| 2026-04-25 13:04 | 54.56328 | -2.93269 | 20269 ft | 394 kts | 1° |
| 2026-04-25 13:04 | 54.59024 | -2.92767 | 20181 ft | 392 kts | 8° |
| 2026-04-25 13:04 | 54.61710 | -2.91886 | 20176 ft | 396 kts | 11° |
| 2026-04-25 13:04 | 54.64421 | -2.90882 | 20173 ft | 396 kts | 12° |
| 2026-04-25 13:05 | 54.67074 | -2.89864 | 20176 ft | 396 kts | 12° |
| 2026-04-25 13:05 | 54.69780 | -2.88816 | 20174 ft | 396 kts | 12° |
| 2026-04-25 13:05 | 54.72448 | -2.87866 | 20159 ft | 395 kts | 8° |
| 2026-04-25 13:05 | 54.75177 | -2.87329 | 19896 ft | 396 kts | 3° |
| 2026-04-25 13:06 | 54.77937 | -2.87242 | 19402 ft | 392 kts | 358° |
| 2026-04-25 13:06 | 54.80619 | -2.87542 | 18895 ft | 385 kts | 353° |
| 2026-04-25 13:06 | 54.83246 | -2.88121 | 18390 ft | 382 kts | 349° |
| 2026-04-25 13:06 | 54.85807 | -2.89043 | 17894 ft | 378 kts | 345° |
| 2026-04-25 13:07 | 54.88319 | -2.90316 | 17371 ft | 375 kts | 341° |
| 2026-04-25 13:07 | 54.90779 | -2.91842 | 16869 ft | 371 kts | 338° |
| 2026-04-25 13:07 | 54.93137 | -2.93470 | 16365 ft | 366 kts | 337° |
| 2026-04-25 13:07 | 54.95461 | -2.95154 | 15866 ft | 360 kts | 336° |
| 2026-04-25 13:08 | 54.97757 | -2.96846 | 15359 ft | 355 kts | 336° |
| 2026-04-25 13:08 | 55.00010 | -2.98508 | 14874 ft | 350 kts | 336° |
| 2026-04-25 13:08 | 55.02220 | -3.00132 | 14368 ft | 346 kts | 337° |
| 2026-04-25 13:08 | 55.04386 | -3.01821 | 13876 ft | 341 kts | 335° |
| 2026-04-25 13:09 | 55.06533 | -3.03491 | 13377 ft | 337 kts | 336° |
| 2026-04-25 13:09 | 55.08651 | -3.05087 | 12887 ft | 333 kts | 336° |
| 2026-04-25 13:09 | 55.10767 | -3.06662 | 12399 ft | 329 kts | 336° |
| 2026-04-25 13:09 | 55.12872 | -3.08216 | 11897 ft | 326 kts | 337° |
| 2026-04-25 13:10 | 55.14952 | -3.09749 | 11402 ft | 323 kts | 336° |
| 2026-04-25 13:10 | 55.16996 | -3.11256 | 10908 ft | 320 kts | 337° |
| 2026-04-25 13:10 | 55.19032 | -3.12757 | 10402 ft | 317 kts | 337° |
| 2026-04-25 13:10 | 55.21050 | -3.14244 | 9902 ft | 314 kts | 337° |
| 2026-04-25 13:11 | 55.23051 | -3.15719 | 9417 ft | 312 kts | 336° |
| 2026-04-25 13:11 | 55.25000 | -3.17149 | 9203 ft | 302 kts | 337° |
| 2026-04-25 13:11 | 55.26936 | -3.18567 | 9175 ft | 303 kts | 337° |
| 2026-04-25 13:11 | 55.28873 | -3.19989 | 9185 ft | 303 kts | 336° |
| 2026-04-25 13:12 | 55.30823 | -3.21420 | 9183 ft | 303 kts | 336° |
| 2026-04-25 13:12 | 55.32689 | -3.23158 | 9174 ft | 303 kts | 326° |
| 2026-04-25 13:12 | 55.34343 | -3.25357 | 9186 ft | 303 kts | 321° |
| 2026-04-25 13:12 | 55.35437 | -3.26948 | 9182 ft | 302 kts | 320° |
| 2026-04-25 13:13 | 55.37574 | -3.30123 | 9188 ft | 302 kts | 320° |
| 2026-04-25 13:13 | 55.39160 | -3.32493 | 9191 ft | 300 kts | 320° |
| 2026-04-25 13:13 | 55.40702 | -3.34795 | 9186 ft | 282 kts | 320° |
| 2026-04-25 13:13 | 55.42151 | -3.36951 | 9185 ft | 266 kts | 320° |
| 2026-04-25 13:14 | 55.43539 | -3.39013 | 9183 ft | 262 kts | 320° |
| 2026-04-25 13:14 | 55.44938 | -3.41088 | 9192 ft | 263 kts | 320° |
| 2026-04-25 13:14 | 55.46349 | -3.43179 | 9193 ft | 263 kts | 320° |
| 2026-04-25 13:14 | 55.47739 | -3.45238 | 9156 ft | 265 kts | 320° |
| 2026-04-25 13:15 | 55.49139 | -3.47317 | 8937 ft | 263 kts | 320° |
| 2026-04-25 13:15 | 55.50531 | -3.49380 | 8686 ft | 261 kts | 320° |
| 2026-04-25 13:15 | 55.51921 | -3.51442 | 8432 ft | 261 kts | 320° |
| 2026-04-25 13:15 | 55.53312 | -3.53511 | 8187 ft | 260 kts | 320° |
| 2026-04-25 13:16 | 55.54660 | -3.55517 | 7941 ft | 251 kts | 320° |
| 2026-04-25 13:16 | 55.55980 | -3.57481 | 7625 ft | 245 kts | 320° |
| 2026-04-25 13:16 | 55.57264 | -3.59393 | 7181 ft | 245 kts | 320° |
| 2026-04-25 13:16 | 55.58570 | -3.61337 | 6724 ft | 245 kts | 320° |
| 2026-04-25 13:17 | 55.59870 | -3.63269 | 6263 ft | 245 kts | 320° |
| 2026-04-25 13:17 | 55.61174 | -3.65207 | 5820 ft | 243 kts | 319° |
| 2026-04-25 13:17 | 55.62442 | -3.67098 | 5371 ft | 241 kts | 319° |
| 2026-04-25 13:17 | 55.63716 | -3.69002 | 4916 ft | 239 kts | 319° |
| 2026-04-25 13:18 | 55.64983 | -3.70902 | 4461 ft | 238 kts | 319° |
| 2026-04-25 13:18 | 55.66248 | -3.72775 | 4009 ft | 237 kts | 322° |
| 2026-04-25 13:18 | 55.67638 | -3.74253 | 3641 ft | 232 kts | 333° |
| 2026-04-25 13:18 | 55.69070 | -3.75464 | 3580 ft | 226 kts | 334° |
| 2026-04-25 13:19 | 55.70498 | -3.76663 | 3581 ft | 226 kts | 334° |
| 2026-04-25 13:19 | 55.71910 | -3.77842 | 3579 ft | 227 kts | 335° |
| 2026-04-25 13:19 | 55.73346 | -3.78859 | 3574 ft | 212 kts | 339° |
| 2026-04-25 13:19 | 55.74244 | -3.79456 | 3570 ft | 200 kts | 339° |
| 2026-04-25 13:20 | 55.75897 | -3.80509 | 3570 ft | 186 kts | 346° |
| 2026-04-25 13:20 | 55.77187 | -3.80667 | 3587 ft | 186 kts | 0° |
| 2026-04-25 13:20 | 55.78488 | -3.80621 | 3588 ft | 186 kts | 3° |
| 2026-04-25 13:20 | 55.79699 | -3.79923 | 3585 ft | 186 kts | 33° |
| 2026-04-25 13:21 | 55.80635 | -3.78367 | 3586 ft | 186 kts | 48° |
| 2026-04-25 13:21 | 55.81446 | -3.76538 | 3590 ft | 187 kts | 53° |
| 2026-04-25 13:21 | 55.82170 | -3.74614 | 3590 ft | 188 kts | 57° |
| 2026-04-25 13:21 | 55.82855 | -3.72662 | 3595 ft | 188 kts | 57° |
| 2026-04-25 13:22 | 55.83545 | -3.70670 | 3598 ft | 189 kts | 57° |
| 2026-04-25 13:22 | 55.84236 | -3.68670 | 3601 ft | 188 kts | 57° |
| 2026-04-25 13:22 | 55.84914 | -3.66700 | 3605 ft | 188 kts | 58° |
| 2026-04-25 13:23 | 55.86272 | -3.62752 | 3295 ft | 186 kts | 58° |
| 2026-04-25 13:23 | 55.86944 | -3.60797 | 3033 ft | 184 kts | 58° |
| 2026-04-25 13:23 | 55.87606 | -3.58865 | 2780 ft | 180 kts | 58° |
| 2026-04-25 13:23 | 55.88231 | -3.57045 | 2545 ft | 167 kts | 58° |
| 2026-04-25 13:24 | 55.88812 | -3.55348 | 2320 ft | 155 kts | 58° |
| 2026-04-25 13:24 | 55.89352 | -3.53769 | 2113 ft | 144 kts | 58° |
| 2026-04-25 13:24 | 55.89860 | -3.52287 | 1917 ft | 136 kts | 58° |
| 2026-04-25 13:24 | 55.90348 | -3.50860 | 1734 ft | 134 kts | 58° |
| 2026-04-25 13:25 | 55.90830 | -3.49454 | 1567 ft | 133 kts | 58° |
| 2026-04-25 13:25 | 55.91307 | -3.48051 | 1364 ft | 132 kts | 59° |
| 2026-04-25 13:25 | 55.91791 | -3.46633 | 1180 ft | 134 kts | 58° |
| 2026-04-25 13:25 | 55.92270 | -3.45235 | 996 ft | 132 kts | 59° |
| 2026-04-25 13:26 | 55.92749 | -3.43829 | 817 ft | 132 kts | 58° |
| 2026-04-25 13:26 | 55.93221 | -3.42439 | 640 ft | 131 kts | 57° |
| 2026-04-25 13:26 | 55.93704 | -3.41047 | 460 ft | 131 kts | 58° |
| 2026-04-25 13:26 | 55.94174 | -3.39664 | 283 ft | 132 kts | 59° |
| 2026-04-25 13:27 | 55.94662 | -3.38264 | 117 ft | 133 kts | 60° |
| 2026-04-25 13:27 | 55.95046 | -3.37099 | 99 ft | 61 kts | 58° |
| 2026-04-25 13:27 | 55.95165 | -3.36746 | 99 ft | 40 kts | 59° |
| 2026-04-25 13:27 | 55.95238 | -3.36415 | 102 ft | 22 kts | 123° |
| 2026-04-25 13:28 | 55.95155 | -3.36280 | 102 ft | 14 kts | 115° |
| 2026-04-25 13:28 | 55.95132 | -3.36178 | 102 ft | 12 kts | 109° |
| 2026-04-25 13:28 | 55.95098 | -3.36012 | 102 ft | 8 kts | 110° |
| 2026-04-25 13:28 | 55.95078 | -3.35937 | 103 ft | 5 kts | 117° |
| 2026-04-25 13:29 | 55.95059 | -3.35902 | 104 ft | 3 kts | 206° |
| 2026-04-25 13:29 | 55.95042 | -3.35937 | 103 ft | 3 kts | 239° |
| 2026-04-25 13:29 | 55.95027 | -3.35983 | 103 ft | 4 kts | 241° |
| 2026-04-25 13:30 | 55.95019 | -3.36015 | 102 ft | 0 kts | 245° |